Terminal Aerodrome Forecast
Issued by NWS

Current Version | Previous Version | Text Only | Print | Product List | Glossary On
Versions: 1 2 3 4 5 6 7 8 9 10 11 12 13
000
FTAK31 PAJN 251100
TAFAPG
TAF
PAPG 251127Z 2512/2612 VRB04KT P6SM FEW090
     FM251400 05006KT P6SM SCT100
     FM251800 06005KT P6SM SCT070 BKN100
     FM260000 09007KT P6SM SCT070 BKN100
     FM260900 12006KT P6SM VCSH SCT040 BKN060 BKN090
      AMD LTD TO CLD VIS AND WIND TIL 251500=

USA.gov is the U.S. government's official web portal to all federal, state and local government web resources and services.